Flight Track Log - Related Links

Times and Time Zones

All times are in EST time to prevent confusion due to time zone crossing. See the N1576C flight status page for this flight to view local times or setup timezone preferences in your user account.

Time Position Orientation Groundspeed Altitude Reporting Facility
EST Latitude Longitude Course Direction KTS MPH feet Rate Location/Type
Thu 02:58:37 PM 28.3500 -80.7167 147° Southeast 70 81 600  Level Orlando TRACON
Thu 02:59:26 PM 28.3500 -80.7333 270° West 78 90 1,200 583 Climbing Orlando TRACON
Thu 03:00:20 PM 28.3667 -80.7500 319° Northwest 79 91 1,600 500 Climbing Orlando TRACON
Thu 03:01:26 PM 28.3667 -80.7667 270° West 93 107 2,200 571 Climbing Orlando TRACON
Thu 03:02:26 PM 28.3500 -80.7667 180° South 97 112 2,800 474 Climbing Orlando TRACON
Thu 03:03:20 PM 28.3167 -80.7333 139° Southeast 106 122 3,100 53 Climbing Orlando TRACON
Thu 03:04:00 PM 28.3416 -80.6855 147° Southeast  Level Estimated
Thu 03:04:20 PM 28.3000 -80.7167 139° Southeast 118 136 2,900  Level Orlando TRACON
Thu 03:05:15 PM 28.2833 -80.7000 139° Southeast 110 127 3,000 104 Climbing Orlando TRACON
Thu 03:06:15 PM 28.2500 -80.6833 156° South 106 122 3,100 50 Climbing Orlando TRACON
Thu 03:07:15 PM 28.2333 -80.6667 139° Southeast 110 127 3,100  Level Orlando TRACON
Thu 03:08:21 PM 28.2000 -80.6333 139° Southeast 123 142 3,100 -48 Level Orlando TRACON
Thu 03:09:21 PM 28.1667 -80.6167 156° South 121 139 3,000 -48 Descending Orlando TRACON
Thu 03:10:27 PM 28.1333 -80.6000 156° South 110 127 3,000 52 Level Orlando TRACON
Thu 03:11:16 PM 28.1167 -80.6000 180° South 111 128 3,100  Climbing Orlando TRACON
Thu 03:12:22 PM 28.0833 -80.6000 180° South 110 127 3,000 -48 Descending Orlando TRACON
Thu 03:13:22 PM 28.0500 -80.6167 204° Southwest 109 125 3,000 50 Level Orlando TRACON
Thu 03:14:22 PM 28.0167 -80.6333 204° Southwest 107 123 3,100 52 Climbing Orlando TRACON
Thu 03:15:17 PM 28.0167 -80.6500 270° West 93 107 3,100 -52 Level Orlando TRACON
Thu 03:16:17 PM 28.0167 -80.6833 270° West 93 107 3,000  Descending Orlando TRACON
Thu 03:17:17 PM 28.0167 -80.7167 270° West 90 104 3,100  Climbing Orlando TRACON
Thu 03:18:17 PM 28.0333 -80.7000 41° Northeast 127 146 3,000 -53 Descending Orlando TRACON
Thu 03:19:11 PM 28.0500 -80.6833 41° Northeast 107 123 3,000 -250 Level Orlando TRACON
Thu 03:20:17 PM 28.0833 -80.6667 24° Northeast 114 131 2,500 -316 Descending Orlando TRACON
Thu 03:21:24 PM 28.1167 -80.6500 24° Northeast 109 125 2,300 -425 Descending Orlando TRACON
Thu 03:22:24 PM 28.1500 -80.6500 360° North 116 133 1,600 -700 Descending Orlando TRACON
Thu 03:23:24 PM 28.1833 -80.6333 24° Northeast 104 120 900 -550 Descending Orlando TRACON
Thu 03:24:24 PM 28.2000 -80.6167 41° Northeast 91 105 500 -190 Descending Orlando TRACON
Thu 03:25:30 PM 28.2333 -80.6167 360° North 106 122 500 347 Level Orlando TRACON
Thu 03:26:25 PM 28.2333 -80.5833 90° East 95 109 1,200 678 Climbing Orlando TRACON
Thu 03:27:25 PM 28.2333 -80.5667 90° East 89 102 1,800 571 Climbing Orlando TRACON
Thu 03:28:31 PM 28.2167 -80.5333 120° Southeast 93 107 2,400 500 Climbing Orlando TRACON
Thu 03:29:25 PM 28.2333 -80.5167 41° Northeast 89 102 2,800 365 Climbing Orlando TRACON
Thu 03:30:26 PM 28.2500 -80.5167 360° North 88 101 3,100 99 Climbing Orlando TRACON
Thu 03:31:26 PM 28.2500 -80.5500 270° West 88 101 3,000 -50 Descending Orlando TRACON
Thu 03:32:26 PM 28.2500 -80.5667 270° West 83 96 3,000  Level Orlando TRACON
Thu 03:33:26 PM 28.2667 -80.6000 300° West 88 101 3,000 50 Level Orlando TRACON
Thu 03:34:26 PM 28.2667 -80.6333 270° West 97 112 3,100 50 Climbing Orlando TRACON
Thu 03:35:27 PM 28.2667 -80.6500 270° West 93 107 3,100 -47 Level Orlando TRACON
Thu 03:36:33 PM 28.2833 -80.6833 300° West 95 109 3,000 -143 Descending Orlando TRACON
Thu 03:37:33 PM 28.2833 -80.7167 270° West 97 112 2,800 -316 Descending Orlando TRACON
Thu 03:38:27 PM 28.3000 -80.7500 300° West 101 116 2,400 -286 Descending Orlando TRACON
Thu 03:39:39 PM 28.3000 -80.7833 270° West 98 113 2,200 -100 Descending Orlando TRACON
Thu 03:40:27 PM 28.3000 -80.8000 270° West 97 112 2,200  Level Orlando TRACON
Thu 03:41:34 PM 28.3167 -80.8333 300° West 96 110 2,200 -47 Level Orlando TRACON
Thu 03:42:34 PM 28.3167 -80.8667 270° West 99 114 2,100 -50 Descending Orlando TRACON
Thu 03:43:34 PM 28.3333 -80.9000 300° West 95 109 2,100  Level Orlando TRACON
Thu 03:44:34 PM 28.3500 -80.9167 319° Northwest 108 124 2,100  Level Orlando TRACON
Thu 03:45:34 PM 28.3667 -80.8833 60° Northeast 109 125 2,100 -50 Level Orlando TRACON
Thu 03:46:34 PM 28.4000 -80.8667 24° Northeast 108 124 2,000 -143 Descending Orlando TRACON
Thu 03:47:40 PM 28.3833 -80.8333 120° Southeast 117 135 1,800 -189 Descending Orlando TRACON
Thu 03:48:41 PM 28.3833 -80.8000 90° East 115 132 1,600 -99 Descending Orlando TRACON
Thu 03:49:41 PM 28.3667 -80.7667 120° Southeast 110 127 1,600 -400 Level Orlando TRACON
Thu 03:50:41 PM 28.3500 -80.7333 120° Southeast 108 124 800 -650 Descending Orlando TRACON
Thu 03:51:41 PM 28.3500 -80.7000 90° East 105 121 300 -300 Descending Orlando TRACON
Thu 03:52:41 PM 28.3333 -80.6833 139° Southeast 105 121 200 -33 Descending Orlando TRACON
Thu 03:54:42 PM 28.3333 -80.6833 319° Northwest 105 121 200  Level Orlando TRACON
Thu 03:56:42 PM 28.3333 -80.6833 319° Northwest 105 121 200  Level Orlando TRACON
Thu 03:58:42 PM 28.3333 -80.6833 319° Northwest 105 121 200  Level Orlando TRACON
Thu 04:00:42 PM 28.3333 -80.6833 319° Northwest 105 121 200  Level Orlando TRACON
Thu 04:02:30 PM 28.3333 -80.6833 319° Northwest 105 121 200  Level Orlando TRACON
Thu 04:04:31 PM 28.3333 -80.6833 319° Northwest 105 121 200  Level Orlando TRACON
Thu 04:06:25 PM 28.3333 -80.6833 319° Northwest 105 121 200  Level Orlando TRACON
Thu 04:08:25 PM 28.3333 -80.6833 319° Northwest 105 121 200  Level Orlando TRACON
Thu 04:10:38 PM 28.3333 -80.6833 319° Northwest 105 121 200  Level Orlando TRACON
Thu 04:12:32 PM 28.3333 -80.6833 319° Northwest 105 121 200  Level Orlando TRACON
Thu 04:14:33 PM 28.3333 -80.6833 319° Northwest 105 121 200  Level Orlando TRACON
Thu 04:16:33 PM 28.3333 -80.6833 319° Northwest 105 121 200  Level Orlando TRACON
Thu 04:19:33 PM 28.3333 -80.6833 319° Northwest 105 121 200  Level Orlando TRACON

Login

Don't have an account? Register now (free) for customized features, flight alerts, and more!